createdAt,value
2023-05-10T00:12:01.545Z,15.43
2023-05-10T00:32:01.568Z,15.43
2023-05-10T00:52:01.473Z,15.43
2023-05-10T01:12:01.448Z,15.18
2023-05-10T01:32:01.462Z,15.43
2023-05-10T01:52:01.442Z,15.43
2023-05-10T02:12:01.439Z,15.43
2023-05-10T02:32:01.437Z,15.37
2023-05-10T02:52:01.337Z,15.37
2023-05-10T03:12:01.331Z,15.50
2023-05-10T03:32:01.331Z,15.31
2023-05-10T03:52:01.329Z,15.31
2023-05-10T04:12:01.329Z,15.50
2023-05-10T04:32:01.319Z,15.18
2023-05-10T04:52:01.220Z,15.31
2023-05-10T05:12:01.226Z,15.37
2023-05-10T05:32:01.216Z,15.31
2023-05-10T05:52:01.230Z,15.37
2023-05-10T06:12:01.311Z,15.37
2023-05-10T06:32:01.238Z,15.43
2023-05-10T06:52:01.200Z,15.31
2023-05-10T07:12:01.243Z,15.31
2023-05-10T07:32:01.109Z,15.31
2023-05-10T07:52:01.079Z,15.50
2023-05-10T08:12:01.073Z,15.37
2023-05-10T08:32:01.262Z,15.50
2023-05-10T08:52:00.990Z,15.43
2023-05-10T09:12:01.103Z,15.68
2023-05-10T09:32:00.982Z,15.43
2023-05-10T09:52:00.982Z,15.50
2023-05-10T10:12:00.977Z,15.56
2023-05-10T10:32:00.885Z,15.56
2023-05-10T10:52:00.885Z,15.75
2023-05-10T11:12:00.902Z,15.87
2023-05-10T11:32:00.987Z,15.75
2023-05-10T11:52:00.791Z,15.68
2023-05-10T12:12:00.777Z,15.87
2023-05-10T12:32:00.783Z,15.81
2023-05-10T12:52:00.901Z,15.81
2023-05-10T13:12:00.768Z,15.68
2023-05-10T13:32:00.771Z,15.81
2023-05-10T13:52:00.705Z,15.68
2023-05-10T14:12:00.724Z,15.68
2023-05-10T14:32:00.697Z,15.68
2023-05-10T14:52:00.704Z,15.56
2023-05-10T15:12:00.590Z,15.68
2023-05-10T15:32:00.597Z,15.81
2023-05-10T15:52:00.582Z,15.62
2023-05-10T16:12:00.632Z,15.62
2023-05-10T16:32:00.583Z,15.75
2023-05-10T16:52:00.499Z,15.62
2023-05-10T17:12:00.490Z,15.62
2023-05-10T17:32:00.506Z,15.68
2023-05-10T17:52:00.479Z,15.50
2023-05-10T18:12:00.496Z,15.43
2023-05-10T18:32:00.474Z,15.50
2023-05-10T18:52:00.513Z,15.50
2023-05-10T19:12:00.514Z,15.50
2023-05-10T19:32:00.523Z,15.62
2023-05-10T19:52:00.357Z,15.56
2023-05-10T20:12:00.377Z,15.43
2023-05-10T20:32:00.353Z,15.31
2023-05-10T20:52:00.351Z,15.43
2023-05-10T21:12:00.427Z,15.43
2023-05-10T21:32:00.378Z,15.50
2023-05-10T21:52:00.389Z,15.37
2023-05-10T22:12:00.266Z,15.37
2023-05-10T22:32:00.227Z,15.37
2023-05-10T22:52:00.249Z,15.25
2023-05-10T23:12:00.221Z,15.31
2023-05-10T23:32:00.277Z,15.31
2023-05-10T23:53:48.499Z,15.06
